sim
Sign-in with your pilot id or email,
or register
Callsign
Passwort

Schedule Details

Flight Number: DLH2526
Departure: Munich Airport (EDDM) at 06:35
Arrival: Moscow Domodedovo International Airport (UUDD) at 09:40
Route: Lufthansa Passenger Schedule. Enter filed route here before submitting Pirep.

Weather Information
Getting current METAR information for EDDM 221750Z VRB01KT 9999 FEW050TCU 18/15 Q1010 NOSIG
Getting current METAR information for UUDD 221800Z 26005MPS CAVOK 15/09 Q1014 R32L/CLRD60 NOSIG

Schedule Frequency

Route Map